Nearby METAR Reports

 

KNUQ - Moffett Nas/Mtn, California, USA
Distance from station: N 9mi, 14km
Updated: Sun, 20-Jun-2021 6:15pm PDT
Clear
Clear
 Wind from NNW
Wind: NNW 12 mph , 19 km/h
Temperature: 70°F , 21°C
Dew Point: 59°F , 15°C
Humidity: 69%
Barometer: 29.82 inHg , 1009.8 hPa
Clouds: Clear
Visibility: 10 miles , 16 km
2021/06/21 01:15 KNUQ 210115Z AUTO 33010KT 10SM CLR 21/15 A2982 RMK AO2
KSJC - San Jose, California, USA
Distance from station: NE 9mi, 14km
Updated: Sun, 20-Jun-2021 5:53pm PDT
Few Clouds
Few Clouds
 Wind from NW
Wind: NW 12 mph , 19 km/h
Temperature: 73°F , 23°C
Dew Point: 57°F , 14°C
Humidity: 57%
Barometer: 29.81 inHg , 1009.5 hPa
Clouds: Few Clouds
Visibility: 10 miles , 16 km
Cloud details: Few Clouds 10000 ft
2021/06/21 00:53 KSJC 210053Z 31010KT 10SM FEW100 23/14 A2981 RMK AO2 SLP093 T02330139 $
 
KRHV - San Jose/Reid, California, USA
Distance from station: ENE 12mi, 19km
Updated: Sun, 20-Jun-2021 5:55pm PDT
Clear
Clear
 Wind from WNW
Wind: WNW 9 mph , 15 km/h
Temperature: 79°F , 26°C
Dew Point: 57°F , 14°C
Humidity: 48%
Barometer: 29.81 inHg , 1009.5 hPa
Clouds: Clear
Visibility: 10 miles , 16 km
2021/06/21 00:55 KRHV 210055Z 30008KT 10SM SKC 26/14 A2981
KPAO - Palo Alto, California, USA
Distance from station: NNW 14mi, 23km
Updated: Sun, 20-Jun-2021 6:00pm PDT
Clear
Clear
 Wind from NNW
Wind: NNW 16 mph , 26 km/h
Temperature: 70°F , 21°C
Dew Point: 59°F , 15°C
Humidity: 69%
Barometer: 29.82 inHg , 1009.8 hPa
Clouds: Clear
Visibility: 10 miles , 16 km
2021/06/21 01:00 KPAO 210100Z 34014KT 10SM SKC 21/15 A2982
 
KSQL - San Carlos Airpo, California, USA
Distance from station: NW 21mi, 34km
Updated: Sun, 20-Jun-2021 5:47pm PDT
Clear
Clear
 Wind from W
Wind: W 8 mph , 13 km/h
Temperature: 72°F , 22°C
Dew Point: 55°F , 13°C
Humidity: 57%
Barometer: 29.82 inHg , 1009.8 hPa
Clouds: Clear
Visibility: 10 miles , 16 km
2021/06/21 00:47 KSQL 210047Z 28007KT 10SM SKC 22/13 A2982
KWVI - Watsonville, California, USA
Distance from station: SSE 27mi, 44km
Updated: Sun, 20-Jun-2021 5:53pm PDT
Clear
Clear
 Wind from WSW
Wind: WSW 12 mph , 19 km/h
Temperature: 63°F , 17°C
Dew Point: 54°F , 12°C
Humidity: 73%
Barometer: 29.88 inHg , 1011.9 hPa
Clouds: Clear
Visibility: 10 miles , 16 km
2021/06/21 00:53 KWVI 210053Z AUTO 25010KT 10SM CLR 17/12 A2988 RMK AO2 SLP117 T01720122
 
KHWD - Hayward, California, USA
Distance from station: N 28mi, 44km
Updated: Sun, 20-Jun-2021 5:54pm PDT
Clear
Clear
 Wind from NW
Wind: NW 15 mph , 24 km/h
Temperature: 68°F , 20°C
Dew Point: 55°F , 13°C
Humidity: 64%
Barometer: 29.82 inHg , 1009.8 hPa
Clouds: Clear
Visibility: 10 miles , 16 km
2021/06/21 00:54 KHWD 210054Z 31013KT 10SM CLR 20/13 A2982 RMK AO2 SLP106 T02000128
KSFO - San Francisco, California, USA
Distance from station: NW 30mi, 49km
Updated: Sun, 20-Jun-2021 5:56pm PDT
Few Clouds
Few Clouds
 Wind from NW
Wind: NW 17 mph , 28 km/h
Temperature: 70°F , 21°C
Dew Point: 54°F , 12°C
Humidity: 57%
Barometer: 29.81 inHg , 1009.5 hPa
Clouds: Few Clouds
Visibility: 10 miles , 16 km
Cloud details: Few Clouds 600 ft
2021/06/21 00:56 KSFO 210056Z 31015KT 10SM FEW006 21/12 A2981 RMK AO2 SLP095 T02110122
 
KHAF - Half Moon Bay, California, USA
Distance from station: WNW 31mi, 50km
Updated: Sun, 20-Jun-2021 6:15pm PDT
Overcast
Overcast
 
Temperature: 57°F , 14°C
Dew Point: 54°F , 12°C
Humidity: 88%
Barometer: 29.88 inHg , 1011.9 hPa
Clouds: Overcast
Visibility: 7 miles , 11 km
Cloud details: Overcast 800 ft
2021/06/21 01:15 KHAF 210115Z AUTO 7SM OVC008 14/12 A2988 RMK AO2
KOAK - Oakland, California, USA
Distance from station: NNW 31mi, 50km
Updated: Sun, 20-Jun-2021 5:53pm PDT
Few Clouds
Few Clouds
 Wind from NW
Wind: NW 16 mph , 26 km/h
Temperature: 64°F , 18°C
Dew Point: 55°F , 13°C
Humidity: 73%
Barometer: 29.83 inHg , 1010.2 hPa
Clouds: Few Clouds
Visibility: 10 miles , 16 km
Cloud details: Few Clouds 1000 ft
2021/06/21 00:53 KOAK 210053Z 32014KT 10SM FEW010 18/13 A2983 RMK AO2 SLP102 T01780128
 
KLVK - Livermore, California, USA
Distance from station: NNE 31mi, 51km
Updated: Sun, 20-Jun-2021 5:53pm PDT
Clear
Clear
 Wind from WNW
Wind: WNW 13 mph , 20 km/h
Temperature: 86°F , 30°C
Dew Point: 52°F , 11°C
Humidity: 31%
Barometer: 29.77 inHg , 1008.1 hPa
Clouds: Clear
Visibility: 10 miles , 16 km
2021/06/21 00:53 KLVK 210053Z 30011KT 10SM CLR 30/11 A2977 RMK AO2 SLP075 T03000111
KCVH - Hollister Muni, California, USA
Distance from station: SE 42mi, 68km
Updated: Sun, 20-Jun-2021 6:15pm PDT
Clear
Clear
 Wind from SW
Wind: SW 16 mph , 26 km/h, Gust: 24 mph , 39 km/h
Temperature: 66°F , 19°C
Dew Point: 54°F , 12°C
Humidity: 64%
Barometer: 29.84 inHg , 1010.5 hPa
Clouds: Clear
Visibility: 10 miles , 16 km
2021/06/21 01:15 KCVH 210115Z AUTO 23014G21KT 10SM CLR 19/12 A2984 RMK A01
 
KSNS - Salinas, California, USA
Distance from station: SSE 48mi, 77km
Updated: Sun, 20-Jun-2021 5:14pm PDT
NOT Current
Mostly Cloudy
Mostly Cloudy
 Wind from NW
Wind: NW 16 mph , 26 km/h
Temperature: 64°F , 18°C
Dew Point: 54°F , 12°C
Humidity: 68%
Barometer: 29.87 inHg , 1011.5 hPa
Clouds: Mostly Cloudy
Visibility: 10 miles , 16 km
Cloud details: Mostly Cloudy 1200 ft
2021/06/21 00:14 KSNS 210014Z AUTO 32014KT 10SM BKN012 18/12 A2987 RMK AO2 T01780122
KMRY - Monterey, California, USA
Distance from station: SSE 49mi, 78km
Updated: Sun, 20-Jun-2021 5:54pm PDT
Clear
Clear
 Wind from W
Wind: W 12 mph , 19 km/h
Temperature: 64°F , 18°C
Dew Point: 54°F , 12°C
Humidity: 68%
Barometer: 29.87 inHg , 1011.5 hPa
Clouds: Clear
Visibility: 10 miles , 16 km
2021/06/21 00:54 KMRY 210054Z 26010KT 10SM CLR 18/12 A2987 RMK AO2 SLP127 T01830122
 
KCCR - Concord, California, USA
Distance from station: N 50mi, 81km
Updated: Sun, 20-Jun-2021 5:53pm PDT
Clear
Clear
 Wind from WNW
Wind: WNW 14 mph , 22 km/h
Temperature: 84°F , 29°C
Dew Point: 45°F , 7°C
Humidity: 25%
Barometer: 29.77 inHg , 1008.1 hPa
Clouds: Clear
Visibility: 10 miles , 16 km
2021/06/21 00:53 KCCR 210053Z 29012KT 10SM CLR 29/07 A2977 RMK AO2 SLP068 T02890072

Metar display script from Saratoga-Weather.org